Time;durP1;ratioP1;P1;durP2;ratioP2;P2;SDS_P1;SDS_P2;PMS_P1;PMS_P2;Temp;Humidity;BMP_temperature;BMP_pressure;BME280_temperature;BME280_humidity;BME280_pressure;Samples;Min_cycle;Max_cycle;Signal;HPM_P1;HPM_P2
2022/10/13 00:00:26;;;;;;;19.58;11.13;;;;;;;9.43;100.00;99313.06;5036350;28;20480;-62
2022/10/13 00:02:53;;;;;;;22.48;11.45;;;;;;;9.62;100.00;99310.84;5029268;28;20063;-60
2022/10/13 00:05:19;;;;;;;24.83;11.93;;;;;;;9.71;100.00;99309.72;5025608;28;20116;-60
2022/10/13 00:07:44;;;;;;;20.65;11.55;;;;;;;9.81;100.00;99314.88;5027029;28;20121;-60
2022/10/13 00:10:10;;;;;;;20.95;11.73;;;;;;;9.78;100.00;99321.47;5017756;28;20104;-60
2022/10/13 00:12:37;;;;;;;26.10;11.30;;;;;;;9.80;100.00;99319.44;5034252;28;20413;-60
2022/10/13 00:15:04;;;;;;;28.75;11.50;;;;;;;9.98;100.00;99312.81;5026967;28;20650;-60
2022/10/13 00:17:29;;;;;;;21.17;11.75;;;;;;;10.18;100.00;99311.22;5026692;28;20025;-60
2022/10/13 00:19:55;;;;;;;22.60;11.40;;;;;;;10.34;100.00;99309.34;5023797;28;20041;-60
2022/10/13 00:22:20;;;;;;;28.00;12.55;;;;;;;10.33;100.00;99319.34;5037561;28;20084;-60
2022/10/13 00:24:52;;;;;;;23.80;12.02;;;;;;;10.26;100.00;99307.56;5034503;28;20025;-60
2022/10/13 00:27:18;;;;;;;22.55;11.73;;;;;;;10.18;100.00;99313.09;5023347;28;20029;-60
2022/10/13 00:29:44;;;;;;;26.92;11.18;;;;;;;10.08;100.00;99308.78;5031182;28;20086;-60
2022/10/13 00:32:09;;;;;;;25.98;12.55;;;;;;;10.06;100.00;99307.28;5017679;28;20033;-60
2022/10/13 00:34:36;;;;;;;29.33;12.75;;;;;;;9.96;100.00;99320.28;5029310;28;20087;-60
2022/10/13 00:37:02;;;;;;;26.45;11.88;;;;;;;9.85;100.00;99306.22;5029503;28;20020;-60
2022/10/13 00:39:28;;;;;;;28.48;13.00;;;;;;;9.83;100.00;99302.84;5026506;28;20108;-60
2022/10/13 00:41:53;;;;;;;25.75;12.65;;;;;;;9.73;100.00;99310.38;5027975;28;20059;-60
2022/10/13 00:44:56;;;;;;;22.92;10.95;;;;;;;9.65;100.00;99310.47;5032610;28;20033;-60
2022/10/13 00:47:24;;;;;;;27.33;11.85;;;;;;;9.61;100.00;99314.56;5029100;28;20068;-60
2022/10/13 00:49:51;;;;;;;30.67;12.70;;;;;;;9.61;100.00;99306.47;5038326;28;20459;-60
2022/10/13 00:52:20;;;;;;;30.35;12.63;;;;;;;9.66;100.00;99312.16;5038816;28;20284;-60
2022/10/13 00:54:46;;;;;;;22.15;11.10;;;;;;;9.60;100.00;99310.19;5030849;28;20039;-60
2022/10/13 00:57:12;;;;;;;27.35;11.52;;;;;;;9.72;100.00;99307.84;5030897;28;20381;-59
2022/10/13 00:59:39;;;;;;;23.70;11.93;;;;;;;9.59;100.00;99312.06;5019126;28;20034;-59
2022/10/13 01:02:05;;;;;;;22.98;11.95;;;;;;;9.56;100.00;99311.56;5024514;28;20043;-59
2022/10/13 01:04:36;;;;;;;26.80;11.00;;;;;;;9.38;100.00;99315.47;5030673;28;20465;-59
2022/10/13 01:07:02;;;;;;;26.90;11.43;;;;;;;9.30;100.00;99312.84;5025129;28;20053;-60
2022/10/13 01:09:34;;;;;;;23.98;12.43;;;;;;;9.18;100.00;99308.91;5034252;28;20025;-60
2022/10/13 01:12:20;;;;;;;20.23;11.57;;;;;;;9.11;100.00;99305.25;5037840;28;20027;-60
2022/10/13 01:14:53;;;;;;;19.75;11.05;;;;;;;9.07;100.00;99317.44;5027069;28;20041;-60
2022/10/13 01:17:45;;;;;;;28.92;12.27;;;;;;;9.13;100.00;99319.41;5023221;28;20491;-59
2022/10/13 01:20:29;;;;;;;25.60;12.85;;;;;;;9.44;100.00;99314.72;5029880;28;20029;-59
2022/10/13 01:23:31;;;;;;;24.75;11.93;;;;;;;9.40;100.00;99316.09;5036376;28;20030;-60
2022/10/13 01:26:21;;;;;;;23.30;10.90;;;;;;;9.35;100.00;99312.28;5028857;28;20026;-60
2022/10/13 01:29:05;;;;;;;22.00;12.02;;;;;;;9.33;100.00;99298.97;5021904;28;20049;-60
2022/10/13 01:31:35;;;;;;;19.55;11.30;;;;;;;9.31;100.00;99309.13;5025519;28;20413;-60
2022/10/13 01:34:01;;;;;;;27.67;11.63;;;;;;;9.30;100.00;99304.75;5023535;28;20026;-60
2022/10/13 01:36:44;;;;;;;27.88;11.55;;;;;;;9.35;100.00;99299.66;5028666;28;20030;-62
2022/10/13 01:39:22;;;;;;;19.50;10.32;;;;;;;9.42;100.00;99295.16;5025316;28;20470;-60
2022/10/13 01:41:53;;;;;;;28.52;12.77;;;;;;;9.53;100.00;99298.44;5018668;28;20029;-60
2022/10/13 01:44:26;;;;;;;29.45;11.93;;;;;;;9.72;100.00;99295.22;5031516;28;20469;-60
2022/10/13 01:46:53;;;;;;;20.45;11.15;;;;;;;10.02;100.00;99281.69;5030533;28;20037;-60
2022/10/13 01:49:23;;;;;;;25.15;11.77;;;;;;;10.10;100.00;99270.75;5030628;28;20029;-60
2022/10/13 01:51:50;;;;;;;23.58;11.57;;;;;;;10.08;100.00;99273.63;5027519;28;20036;-60
2022/10/13 01:54:18;;;;;;;20.77;10.80;;;;;;;10.10;100.00;99265.34;5026895;28;20025;-61
2022/10/13 01:56:53;;;;;;;27.48;10.90;;;;;;;10.05;100.00;99265.91;5021732;28;20105;-60
2022/10/13 01:59:19;;;;;;;29.95;11.05;;;;;;;10.13;100.00;99258.72;5024708;28;20389;-60
2022/10/13 02:01:56;;;;;;;20.30;11.23;;;;;;;10.16;100.00;99258.34;5031401;28;20148;-60
2022/10/13 02:04:41;;;;;;;22.77;11.13;;;;;;;10.34;100.00;99269.63;5027073;28;20034;-60
2022/10/13 02:07:22;;;;;;;22.83;11.65;;;;;;;10.25;100.00;99268.03;5022189;28;20116;-60
2022/10/13 02:09:57;;;;;;;16.95;10.57;;;;;;;10.22;100.00;99269.25;5031148;28;20021;-60
2022/10/13 02:12:33;;;;;;;19.42;10.38;;;;;;;10.23;100.00;99259.28;5028456;28;20033;-60
2022/10/13 02:15:01;;;;;;;23.48;10.40;;;;;;;10.25;100.00;99258.06;5028194;28;20114;-60
2022/10/13 02:17:27;;;;;;;22.92;10.18;;;;;;;10.14;100.00;99255.84;5024489;28;20018;-60
2022/10/13 02:19:54;;;;;;;21.98;12.18;;;;;;;10.18;100.00;99259.84;5035028;28;20026;-60
2022/10/13 02:22:26;;;;;;;18.67;10.38;;;;;;;10.14;100.00;99266.66;5033151;28;20033;-60
2022/10/13 02:24:52;;;;;;;23.42;11.48;;;;;;;10.19;100.00;99272.34;5035879;28;20394;-60
2022/10/13 02:27:17;;;;;;;20.02;10.98;;;;;;;10.14;100.00;99277.47;5031466;28;20030;-60
2022/10/13 02:29:54;;;;;;;24.20;10.35;;;;;;;10.09;100.00;99271.81;5032140;28;20167;-60
2022/10/13 02:32:21;;;;;;;19.48;9.40;;;;;;;10.09;100.00;99271.81;5038726;28;20029;-60
2022/10/13 02:34:46;;;;;;;21.58;10.63;;;;;;;10.15;100.00;99278.31;5028817;28;20045;-60
2022/10/13 02:37:11;;;;;;;17.77;10.55;;;;;;;10.20;100.00;99270.47;5036577;28;20037;-60
2022/10/13 02:39:37;;;;;;;22.98;11.73;;;;;;;10.25;100.00;99271.59;5035103;28;20123;-60
2022/10/13 02:42:02;;;;;;;21.20;10.90;;;;;;;10.28;100.00;99268.53;5029302;28;20119;-60
2022/10/13 02:44:28;;;;;;;24.17;10.82;;;;;;;10.31;100.00;99265.44;5026957;28;20117;-60
2022/10/13 02:46:53;;;;;;;23.85;11.00;;;;;;;10.32;100.00;99271.66;5034476;28;20175;-60
2022/10/13 02:49:19;;;;;;;20.98;10.65;;;;;;;10.34;100.00;99272.31;5028305;28;20075;-60
2022/10/13 02:51:44;;;;;;;20.25;11.20;;;;;;;10.34;100.00;99269.63;5034589;28;20025;-60
2022/10/13 02:54:09;;;;;;;26.52;11.02;;;;;;;10.36;100.00;99266.75;5037273;28;20475;-59
2022/10/13 02:56:35;;;;;;;21.85;11.55;;;;;;;10.49;100.00;99267.72;5029973;28;20481;-60
2022/10/13 02:59:00;;;;;;;22.65;12.18;;;;;;;10.54;100.00;99267.16;5024199;28;20090;-60
2022/10/13 03:01:26;;;;;;;28.50;11.77;;;;;;;10.58;100.00;99264.88;5024123;28;20096;-60
2022/10/13 03:03:51;;;;;;;22.58;11.95;;;;;;;10.61;100.00;99265.38;5032270;28;20039;-59
2022/10/13 03:06:17;;;;;;;23.02;11.35;;;;;;;10.68;100.00;99257.28;5035768;28;20029;-60
2022/10/13 03:08:42;;;;;;;20.08;10.02;;;;;;;10.82;100.00;99252.84;5040657;28;20021;-61
2022/10/13 03:11:07;;;;;;;27.05;11.95;;;;;;;10.87;100.00;99258.50;5032569;28;20115;-60
2022/10/13 03:13:33;;;;;;;21.38;10.88;;;;;;;10.97;100.00;99259.84;5029516;28;20023;-62
2022/10/13 03:15:59;;;;;;;28.52;11.35;;;;;;;10.84;100.00;99229.13;5028819;28;20056;-60
2022/10/13 03:18:25;;;;;;;19.55;10.65;;;;;;;10.97;100.00;99246.31;5020740;28;20521;-60
2022/10/13 03:20:59;;;;;;;24.13;11.27;;;;;;;11.01;100.00;99245.97;5026861;28;20025;-60
2022/10/13 03:23:25;;;;;;;25.65;10.90;;;;;;;10.99;100.00;99243.44;5033437;28;20033;-60
2022/10/13 03:25:50;;;;;;;21.80;10.95;;;;;;;11.14;100.00;99241.47;5035078;28;20087;-60
2022/10/13 03:28:16;;;;;;;23.35;11.15;;;;;;;11.15;100.00;99226.88;5044550;28;20030;-60
2022/10/13 03:30:41;;;;;;;21.63;12.10;;;;;;;11.19;100.00;99233.59;5035912;28;20036;-59
2022/10/13 03:33:06;;;;;;;24.10;11.20;;;;;;;11.16;100.00;99234.00;5032654;28;20064;-60
2022/10/13 03:35:32;;;;;;;27.58;10.43;;;;;;;11.21;100.00;99232.56;5025946;28;20363;-60
2022/10/13 03:37:58;;;;;;;20.05;11.20;;;;;;;11.27;100.00;99229.91;5028392;28;20076;-60
2022/10/13 03:40:23;;;;;;;27.70;12.40;;;;;;;11.26;100.00;99232.81;5036237;28;20021;-60
2022/10/13 03:42:49;;;;;;;21.70;11.88;;;;;;;11.21;100.00;99233.38;5043151;28;20082;-59
2022/10/13 03:45:14;;;;;;;23.98;11.20;;;;;;;11.28;100.00;99219.91;5035394;28;20122;-59
2022/10/13 03:47:40;;;;;;;21.50;11.27;;;;;;;11.26;100.00;99227.38;5039431;28;20037;-59
2022/10/13 03:50:06;;;;;;;32.85;12.05;;;;;;;11.28;100.00;99231.56;5032298;28;20020;-59
2022/10/13 03:52:32;;;;;;;28.70;11.63;;;;;;;11.33;100.00;99220.16;5029104;28;20032;-59
2022/10/13 03:54:57;;;;;;;23.88;11.52;;;;;;;11.37;100.00;99229.53;5022392;28;20022;-59
2022/10/13 03:57:23;;;;;;;27.45;11.70;;;;;;;11.35;100.00;99227.03;5032092;28;20611;-60
2022/10/13 03:59:48;;;;;;;21.27;10.82;;;;;;;11.27;100.00;99213.66;5023312;28;20132;-60
2022/10/13 04:02:13;;;;;;;23.60;12.20;;;;;;;11.23;100.00;99219.66;5028466;28;20049;-60
2022/10/13 04:04:40;;;;;;;30.35;12.13;;;;;;;11.24;100.00;99224.03;5018671;28;20026;-60
2022/10/13 04:07:06;;;;;;;26.77;11.65;;;;;;;11.17;100.00;99229.41;5030470;28;20431;-60
2022/10/13 04:09:32;;;;;;;19.75;11.32;;;;;;;11.26;100.00;99225.50;5029581;28;20196;-60
2022/10/13 04:11:58;;;;;;;29.00;12.13;;;;;;;11.24;100.00;99224.91;5034000;28;20072;-60
2022/10/13 04:14:23;;;;;;;26.77;13.05;;;;;;;11.39;100.00;99227.47;5034781;28;20083;-60
2022/10/13 04:16:49;;;;;;;26.85;12.13;;;;;;;11.44;100.00;99224.19;5035285;28;20032;-60
2022/10/13 04:19:15;;;;;;;26.15;14.25;;;;;;;11.41;100.00;99214.56;5024325;28;20112;-60
2022/10/13 04:21:42;;;;;;;31.25;12.73;;;;;;;11.35;100.00;99218.09;5027827;28;20020;-60
2022/10/13 04:24:11;;;;;;;31.63;12.95;;;;;;;11.29;100.00;99213.44;5027195;28;20082;-60
2022/10/13 04:26:36;;;;;;;33.97;12.43;;;;;;;11.35;100.00;99226.22;5043393;28;20029;-60
2022/10/13 04:29:04;;;;;;;33.83;12.55;;;;;;;11.48;100.00;99220.06;5033903;28;20033;-60
2022/10/13 04:31:30;;;;;;;30.48;13.02;;;;;;;11.51;100.00;99208.81;5031691;28;20029;-60
2022/10/13 04:33:56;;;;;;;30.42;12.75;;;;;;;11.61;100.00;99210.13;5024892;28;20052;-60
2022/10/13 04:36:23;;;;;;;27.00;12.27;;;;;;;11.68;100.00;99206.59;5025248;28;20469;-62
2022/10/13 04:38:49;;;;;;;24.38;11.95;;;;;;;11.55;100.00;99213.63;5028699;28;20062;-62
2022/10/13 04:41:16;;;;;;;24.48;12.23;;;;;;;11.58;100.00;99204.25;5027457;28;20443;-61
2022/10/13 04:43:41;;;;;;;25.52;11.85;;;;;;;11.46;100.00;99208.56;5030750;28;20029;-62
2022/10/13 04:46:12;;;;;;;29.75;12.52;;;;;;;11.27;100.00;99218.25;5030390;28;20021;-62
2022/10/13 04:48:38;;;;;;;27.45;11.93;;;;;;;11.13;100.00;99217.28;5029426;28;20083;-61
2022/10/13 04:51:12;;;;;;;29.20;11.50;;;;;;;11.01;100.00;99222.41;5027682;28;20469;-62
2022/10/13 04:53:39;;;;;;;29.00;12.45;;;;;;;10.94;100.00;99218.81;5044302;28;20021;-60
2022/10/13 04:56:10;;;;;;;26.92;11.82;;;;;;;10.96;100.00;99219.47;5037461;28;20021;-60
2022/10/13 04:58:36;;;;;;;30.15;12.13;;;;;;;11.03;100.00;99214.09;5027622;28;20025;-60
2022/10/13 05:01:04;;;;;;;25.48;11.45;;;;;;;11.11;100.00;99208.56;5031354;28;20030;-60
2022/10/13 05:03:30;;;;;;;22.63;11.20;;;;;;;11.20;100.00;99204.63;5031045;28;20022;-60
2022/10/13 05:05:56;;;;;;;24.73;12.55;;;;;;;11.30;100.00;99191.59;5035960;28;20036;-60
2022/10/13 05:08:21;;;;;;;29.98;12.43;;;;;;;11.25;100.00;99202.19;5025437;28;20389;-60
2022/10/13 05:10:58;;;;;;;25.70;11.43;;;;;;;11.11;100.00;99181.47;5030920;28;20171;-60
2022/10/13 05:13:24;;;;;;;23.15;12.27;;;;;;;11.22;100.00;99193.63;5031873;28;20029;-60
2022/10/13 05:15:49;;;;;;;25.80;12.55;;;;;;;11.16;100.00;99211.47;5020178;28;20029;-60
2022/10/13 05:18:15;;;;;;;24.30;12.63;;;;;;;11.18;100.00;99214.81;5018851;28;20385;-60
2022/10/13 05:20:40;;;;;;;28.55;12.82;;;;;;;11.09;100.00;99216.84;5028833;28;20025;-59
2022/10/13 05:23:06;;;;;;;26.30;12.10;;;;;;;11.09;100.00;99211.44;5021883;28;20146;-59
2022/10/13 05:25:34;;;;;;;37.92;13.32;;;;;;;11.01;100.00;99213.47;5030572;28;20561;-59
2022/10/13 05:27:59;;;;;;;29.15;13.13;;;;;;;10.94;100.00;99214.22;5025007;28;20025;-60
2022/10/13 05:30:25;;;;;;;30.98;13.63;;;;;;;10.93;100.00;99211.72;5030681;28;20777;-59
2022/10/13 05:32:50;;;;;;;30.50;12.57;;;;;;;10.94;100.00;99216.09;5029749;28;20089;-59
2022/10/13 05:35:16;;;;;;;25.90;12.30;;;;;;;11.05;100.00;99209.31;5039919;28;20021;-60
2022/10/13 05:37:41;;;;;;;19.33;11.45;;;;;;;11.15;100.00;99210.66;5030020;28;20025;-60
2022/10/13 05:40:07;;;;;;;27.70;12.23;;;;;;;11.15;100.00;99226.06;5032189;28;20040;-60
2022/10/13 05:42:34;;;;;;;23.88;12.65;;;;;;;11.23;100.00;99216.94;5034333;28;20034;-61
2022/10/13 05:45:00;;;;;;;24.33;12.50;;;;;;;11.28;100.00;99225.31;5023206;28;20044;-59
2022/10/13 05:47:27;;;;;;;26.05;12.73;;;;;;;11.28;100.00;99226.16;5049490;28;20516;-59
2022/10/13 05:49:54;;;;;;;29.42;13.15;;;;;;;11.27;100.00;99223.66;5035788;28;20369;-59
2022/10/13 05:52:22;;;;;;;29.05;12.48;;;;;;;11.34;100.00;99229.94;5034992;28;20061;-59
2022/10/13 05:54:53;;;;;;;23.50;11.27;;;;;;;11.29;100.00;99211.59;5032893;28;20065;-59
2022/10/13 05:57:26;;;;;;;25.10;11.95;;;;;;;11.44;100.00;99214.16;5021056;28;20053;-59
2022/10/13 06:00:00;;;;;;;22.08;11.10;;;;;;;11.46;100.00;99214.81;5025171;28;20034;-59
2022/10/13 06:02:32;;;;;;;25.30;11.57;;;;;;;11.54;100.00;99202.97;5016214;28;20179;-59
2022/10/13 06:04:58;;;;;;;21.10;10.85;;;;;;;11.62;100.00;99203.66;5017522;28;20163;-59
2022/10/13 06:07:23;;;;;;;27.50;11.27;;;;;;;11.73;100.00;99196.81;5027990;28;20119;-59
2022/10/13 06:09:49;;;;;;;27.10;11.02;;;;;;;11.91;100.00;99196.31;5025822;28;20166;-59
2022/10/13 06:12:15;;;;;;;21.88;11.70;;;;;;;11.85;100.00;99188.97;5018785;28;20022;-59
2022/10/13 06:14:40;;;;;;;19.40;10.23;;;;;;;11.92;100.00;99187.16;5027661;28;20347;-59
2022/10/13 06:17:06;;;;;;;24.55;10.43;;;;;;;12.07;100.00;99185.09;5025692;28;20029;-59
2022/10/13 06:19:31;;;;;;;18.20;9.25;;;;;;;12.09;100.00;99190.34;5023403;28;20033;-59
2022/10/13 06:21:57;;;;;;;18.52;9.48;;;;;;;12.29;100.00;99179.56;5020956;28;20385;-59
2022/10/13 06:24:22;;;;;;;20.33;9.82;;;;;;;12.41;100.00;99193.34;5015632;28;20373;-59
2022/10/13 06:26:48;;;;;;;20.45;10.48;;;;;;;12.46;100.00;99188.13;5023552;28;20052;-59
2022/10/13 06:29:13;;;;;;;18.13;9.20;;;;;;;12.47;100.00;99187.06;5018895;28;20033;-59
2022/10/13 06:31:38;;;;;;;19.77;9.77;;;;;;;12.50;100.00;99198.38;5035695;28;20029;-59
2022/10/13 06:34:04;;;;;;;15.00;9.30;;;;;;;12.50;100.00;99192.13;5041525;28;20044;-59
2022/10/13 06:36:30;;;;;;;18.95;9.27;;;;;;;12.38;100.00;99186.44;5031447;28;20507;-59
2022/10/13 06:38:55;;;;;;;18.48;9.23;;;;;;;12.48;100.00;99192.31;5024520;28;20025;-60
2022/10/13 06:41:21;;;;;;;18.50;8.77;;;;;;;12.50;100.00;99192.94;5036323;28;20028;-59
2022/10/13 06:43:46;;;;;;;17.65;9.13;;;;;;;12.54;100.00;99195.25;5033291;28;20030;-63
2022/10/13 06:46:12;;;;;;;21.88;9.48;;;;;;;12.50;100.00;99182.09;5039532;28;20037;-63
2022/10/13 06:48:38;;;;;;;19.02;9.57;;;;;;;12.62;100.00;99184.19;5030208;28;20034;-63
2022/10/13 06:51:05;;;;;;;22.73;10.00;;;;;;;12.55;100.00;99186.91;5027410;28;20029;-63
2022/10/13 06:53:31;;;;;;;17.13;9.40;;;;;;;12.62;100.00;99193.16;5029018;28;20124;-62
2022/10/13 06:56:01;;;;;;;16.42;8.63;;;;;;;12.68;100.00;99188.78;5029891;28;20025;-63
2022/10/13 06:58:27;;;;;;;20.38;9.63;;;;;;;12.79;100.00;99184.63;5034895;28;20071;-63
2022/10/13 07:00:53;;;;;;;20.50;10.05;;;;;;;12.91;100.00;99191.09;5030453;28;20028;-62
2022/10/13 07:03:19;;;;;;;24.02;9.50;;;;;;;13.06;100.00;99171.88;5021768;28;20021;-62
2022/10/13 07:05:44;;;;;;;17.80;8.25;;;;;;;13.16;100.00;99180.44;5016003;28;20036;-63
2022/10/13 07:08:10;;;;;;;21.58;9.10;;;;;;;13.22;100.00;99182.28;5029333;28;20025;-62
2022/10/13 07:10:39;;;;;;;24.92;9.15;;;;;;;13.09;100.00;99185.03;5031628;28;20030;-62
2022/10/13 07:13:04;;;;;;;;;;;;;;;13.15;100.00;99185.03;5038049;28;20034;-63
2022/10/13 07:15:30;;;;;;;17.55;8.73;;;;;;;13.19;100.00;99182.72;5043543;28;19967;-63
2022/10/13 07:17:56;;;;;;;15.48;7.93;;;;;;;13.25;100.00;99179.16;5031578;28;20032;-63
2022/10/13 07:20:22;;;;;;;22.10;7.88;;;;;;;13.35;100.00;99174.16;5030633;28;20028;-63
2022/10/13 07:22:48;;;;;;;16.58;7.72;;;;;;;13.33;100.00;99187.09;5031700;28;20127;-63
2022/10/13 07:25:13;;;;;;;18.02;8.20;;;;;;;13.33;100.00;99189.81;5042656;28;20113;-63
2022/10/13 07:27:39;;;;;;;17.00;8.80;;;;;;;13.38;100.00;99171.00;5035477;28;20025;-63
2022/10/13 07:30:07;;;;;;;16.42;8.43;;;;;;;13.36;100.00;99178.56;5026664;28;20056;-61
2022/10/13 07:32:33;;;;;;;19.95;9.48;;;;;;;13.26;100.00;99142.81;5038506;28;20037;-61
2022/10/13 07:34:58;;;;;;;16.90;8.25;;;;;;;13.44;100.00;99176.63;5029089;28;20034;-62
2022/10/13 07:37:25;;;;;;;18.58;7.63;;;;;;;13.47;100.00;99165.34;5038806;28;20030;-62
2022/10/13 07:39:50;;;;;;;17.95;8.52;;;;;;;13.44;100.00;99160.31;5037327;28;20372;-62
2022/10/13 07:42:16;;;;;;;22.73;8.27;;;;;;;13.51;100.00;99170.13;5040447;28;20025;-62
2022/10/13 07:44:42;;;;;;;19.88;8.50;;;;;;;13.66;100.00;99163.63;5032401;28;20121;-62
2022/10/13 07:47:07;;;;;;;17.13;8.18;;;;;;;13.88;100.00;99159.53;5027122;28;20120;-62
2022/10/13 07:49:33;;;;;;;15.85;8.35;;;;;;;14.10;100.00;99168.25;5023953;28;20461;-61
2022/10/13 07:51:58;;;;;;;15.90;7.93;;;;;;;14.14;100.00;99166.75;5034422;28;20029;-61
2022/10/13 07:54:24;;;;;;;17.77;8.68;;;;;;;14.09;100.00;99168.44;5025888;28;20466;-61
2022/10/13 07:56:53;;;;;;;23.40;9.10;;;;;;;14.00;100.00;99176.88;5028536;28;20047;-61
2022/10/13 07:59:19;;;;;;;21.42;8.13;;;;;;;14.19;100.00;99168.81;5016245;28;20418;-64
2022/10/13 08:01:45;;;;;;;19.88;9.02;;;;;;;14.13;100.00;99165.09;5048158;28;20025;-62
2022/10/13 08:04:10;;;;;;;15.30;7.90;;;;;;;14.14;100.00;99161.28;5032808;28;20504;-61
2022/10/13 08:06:36;;;;;;;18.75;8.20;;;;;;;14.37;100.00;99163.47;5028458;28;20042;-61
2022/10/13 08:09:02;;;;;;;15.77;7.68;;;;;;;14.42;100.00;99166.38;5024196;28;20029;-61
2022/10/13 08:11:29;;;;;;;24.95;8.82;;;;;;;14.59;100.00;99169.44;5024750;28;20072;-65
2022/10/13 08:13:59;;;;;;;19.40;7.90;;;;;;;14.84;100.00;99153.09;5020108;28;20088;-61
2022/10/13 08:16:25;;;;;;;19.67;8.10;;;;;;;15.11;100.00;99150.97;5028966;28;20450;-61
2022/10/13 08:18:50;;;;;;;15.40;7.53;;;;;;;16.25;100.00;99138.75;5024034;28;20053;-65
2022/10/13 08:21:18;;;;;;;19.02;7.70;;;;;;;17.58;100.00;99142.84;5025614;28;20065;-65
2022/10/13 08:23:44;;;;;;;15.60;7.80;;;;;;;17.95;100.00;99131.59;5026830;28;20037;-61
2022/10/13 08:26:20;;;;;;;15.50;7.30;;;;;;;18.62;100.00;99139.94;5035263;28;20021;-62
2022/10/13 08:28:46;;;;;;;13.20;6.53;;;;;;;20.04;97.25;99136.84;5025228;28;20037;-62
2022/10/13 08:31:11;;;;;;;13.63;7.28;;;;;;;20.52;85.02;99128.81;5021261;28;20033;-62
2022/10/13 08:33:37;;;;;;;15.25;6.40;;;;;;;22.15;78.54;99125.47;5024546;28;20521;-63
2022/10/13 08:36:02;;;;;;;13.27;6.30;;;;;;;22.91;68.67;99128.34;5035363;28;20044;-63
2022/10/13 08:38:28;;;;;;;14.00;7.20;;;;;;;21.76;69.99;99132.19;5022917;28;20021;-62
2022/10/13 08:40:54;;;;;;;11.95;6.78;;;;;;;22.45;68.64;99136.59;5027668;28;20028;-63
2022/10/13 08:43:23;;;;;;;14.93;6.47;;;;;;;22.86;66.39;99131.09;5020541;28;20022;-64
2022/10/13 08:45:57;;;;;;;16.80;6.90;;;;;;;24.38;60.82;99132.88;5022837;28;20025;-63
2022/10/13 08:48:35;;;;;;;13.02;6.68;;;;;;;23.89;60.48;99133.69;5023557;28;20033;-64
2022/10/13 08:51:04;;;;;;;13.13;6.87;;;;;;;23.29;61.15;99133.56;5012509;28;20021;-61
2022/10/13 08:53:58;;;;;;;15.07;7.35;;;;;;;22.79;63.10;99137.97;5012971;28;20298;-68
2022/10/13 08:56:30;;;;;;;18.50;6.50;;;;;;;23.65;62.02;99131.53;5018804;28;20597;-65
2022/10/13 08:58:56;;;;;;;15.02;6.22;;;;;;;24.00;59.25;99136.13;5036904;28;20059;-65
2022/10/13 09:01:28;;;;;;;15.98;6.57;;;;;;;24.25;58.48;99128.81;5045082;28;20038;-65
2022/10/13 09:04:30;;;;;;;16.42;6.25;;;;;;;23.49;60.89;99121.66;5038067;28;20031;-65
2022/10/13 09:07:12;;;;;;;11.25;6.20;;;;;;;23.23;60.98;99118.94;5027068;28;20021;-65
2022/10/13 09:09:38;;;;;;;10.85;6.15;;;;;;;23.00;61.35;99117.59;5018281;28;20536;-65
2022/10/13 09:12:05;;;;;;;12.63;6.40;;;;;;;21.77;65.72;99102.72;5034147;28;20034;-65
2022/10/13 09:14:34;;;;;;;17.40;6.70;;;;;;;21.54;67.27;99113.09;5039606;28;20075;-65
2022/10/13 09:17:14;;;;;;;;;;;;;;;21.08;69.83;99112.78;5028001;28;20041;-65
2022/10/13 09:19:40;;;;;;;17.27;7.25;;;;;;;20.65;73.16;99114.66;5016329;28;20835;-65
2022/10/13 09:22:25;;;;;;;13.32;6.63;;;;;;;20.83;73.53;99118.09;5025807;28;20022;-65
2022/10/13 09:25:21;;;;;;;17.33;7.00;;;;;;;19.94;78.71;99123.00;5030339;28;20022;-66
2022/10/13 09:27:46;;;;;;;12.60;6.68;;;;;;;20.02;81.18;99124.44;5023417;28;20489;-65
2022/10/13 09:30:36;;;;;;;15.82;7.15;;;;;;;19.43;84.20;99114.88;5026616;28;20041;-65
2022/10/13 09:33:05;;;;;;;;;;;;;;;19.18;89.57;99136.50;5023242;28;20031;-65
2022/10/13 09:35:33;;;;;;;;;;;;;;;19.57;89.55;99120.00;5043990;28;20014;-65
2022/10/13 09:38:27;;;;;;;19.00;6.95;;;;;;;19.55;88.30;99120.28;5032617;28;20306;-65
2022/10/13 09:41:19;;;;;;;13.00;6.57;;;;;;;19.26;90.63;99114.13;5025667;28;20163;-64
2022/10/13 09:43:44;;;;;;;23.38;6.68;;;;;;;19.13;95.06;99114.47;5056558;22;20054;-71
2022/10/13 09:46:22;;;;;;;15.90;7.03;;;;;;;18.97;96.26;99116.16;5081898;28;20021;-71
2022/10/13 09:48:55;;;;;;;13.48;6.70;;;;;;;18.82;98.80;99114.81;5089485;28;20036;-70
2022/10/13 09:51:31;;;;;;;13.75;6.80;;;;;;;18.18;100.00;99125.16;5074242;28;20025;-71
2022/10/13 09:53:56;;;;;;;22.33;7.25;;;;;;;18.34;100.00;99118.09;5078527;28;20059;-70
2022/10/13 09:56:32;;;;;;;18.98;7.30;;;;;;;18.51;100.00;99113.44;5078046;28;20032;-70
2022/10/13 09:59:32;;;;;;;14.75;6.32;;;;;;;17.86;100.00;99125.63;5071305;28;20513;-70
2022/10/13 10:02:01;;;;;;;17.83;6.70;;;;;;;17.90;100.00;99123.25;5064504;28;20056;-70
2022/10/13 10:04:34;;;;;;;14.30;6.28;;;;;;;17.66;100.00;99117.84;5064644;28;20024;-70
2022/10/13 10:07:08;;;;;;;14.88;7.20;;;;;;;17.71;100.00;99106.13;5064361;28;20119;-70
2022/10/13 10:09:36;;;;;;;15.43;6.35;;;;;;;17.45;100.00;99110.28;5061277;28;20439;-70
2022/10/13 10:12:03;;;;;;;13.30;6.82;;;;;;;17.21;100.00;99115.78;5063519;28;20471;-70
2022/10/13 10:14:36;;;;;;;18.08;6.72;;;;;;;16.80;100.00;99120.25;5064981;28;20040;-70
2022/10/13 10:17:40;;;;;;;16.30;6.25;;;;;;;16.85;100.00;99108.63;5061535;28;20033;-70
2022/10/13 10:20:15;;;;;;;16.73;6.47;;;;;;;16.73;100.00;99113.22;5053719;28;20035;-70
2022/10/13 10:22:59;;;;;;;17.80;7.07;;;;;;;16.57;100.00;99120.19;5055256;28;20029;-70
2022/10/13 10:25:28;;;;;;;15.27;6.43;;;;;;;16.46;100.00;99118.28;5053598;28;20490;-70
2022/10/13 10:28:12;;;;;;;;;;;;;;;16.36;100.00;99114.22;5055920;28;20070;-70
2022/10/13 10:31:09;;;;;;;14.00;5.72;;;;;;;16.44;100.00;99107.59;5059230;28;19916;-69
2022/10/13 10:33:43;;;;;;;15.55;6.20;;;;;;;16.30;100.00;99115.16;5059569;28;20036;-69
2022/10/13 10:36:30;;;;;;;13.90;6.50;;;;;;;16.21;100.00;99102.88;5064090;28;20025;-69
2022/10/13 10:39:12;;;;;;;11.45;6.07;;;;;;;16.43;100.00;99093.09;5062248;28;20500;-69
2022/10/13 10:41:49;;;;;;;15.75;6.15;;;;;;;16.41;100.00;99119.81;5064557;28;20127;-69
2022/10/13 10:44:20;;;;;;;9.70;5.47;;;;;;;16.22;100.00;99110.03;5065320;28;20028;-69
2022/10/13 10:46:48;;;;;;;12.57;5.90;;;;;;;16.48;100.00;99106.06;5065348;28;20036;-69
2022/10/13 10:49:29;;;;;;;16.27;6.25;;;;;;;16.57;100.00;99099.19;5057028;28;20477;-69
2022/10/13 10:51:54;;;;;;;14.88;6.15;;;;;;;16.58;100.00;99106.31;5064048;28;20033;-69
2022/10/13 10:54:22;;;;;;;17.40;6.20;;;;;;;16.48;100.00;99105.22;5065437;28;20104;-69
2022/10/13 10:56:54;;;;;;;17.13;6.20;;;;;;;16.57;100.00;99081.97;5062675;28;20029;-69
2022/10/13 10:59:26;;;;;;;13.25;6.35;;;;;;;16.40;100.00;99087.25;5061690;28;20466;-68
2022/10/13 11:02:07;;;;;;;18.90;7.43;;;;;;;16.33;100.00;99097.47;5065671;28;20028;-68
2022/10/13 11:04:46;;;;;;;15.35;6.18;;;;;;;16.50;100.00;99081.22;5056812;28;20036;-70
2022/10/13 11:07:23;;;;;;;14.20;6.13;;;;;;;16.83;100.00;99077.97;5066436;28;20036;-69
2022/10/13 11:09:51;;;;;;;13.02;5.47;;;;;;;16.82;100.00;99063.50;5066926;28;20410;-69
2022/10/13 11:12:20;;;;;;;13.77;5.18;;;;;;;16.94;100.00;99065.38;5054944;28;20096;-71
2022/10/13 11:15:00;;;;;;;11.80;5.23;;;;;;;16.99;100.00;99062.75;5063182;28;20033;-71
2022/10/13 11:17:27;;;;;;;12.75;5.78;;;;;;;17.16;100.00;99060.97;5060171;28;20020;-68
2022/10/13 11:19:54;;;;;;;18.02;5.03;;;;;;;17.40;100.00;99050.81;5064580;28;20036;-71
2022/10/13 11:22:22;;;;;;;13.30;5.60;;;;;;;17.50;100.00;99052.91;5066898;28;20024;-72
2022/10/13 11:24:54;;;;;;;14.40;5.95;;;;;;;18.32;100.00;99046.28;5057884;28;20033;-69
2022/10/13 11:27:31;;;;;;;11.52;4.93;;;;;;;18.65;100.00;99045.44;5059632;28;20133;-72